createdAt,value
2023-02-22T00:01:47.498Z,42.92
2023-02-22T00:04:15.944Z,44.80
2023-02-22T00:06:42.612Z,42.88
2023-02-22T00:09:10.324Z,42.63
2023-02-22T00:11:38.473Z,41.17
2023-02-22T00:14:05.566Z,43.03
2023-02-22T00:16:32.215Z,40.25
2023-02-22T00:18:58.934Z,40.05
2023-02-22T00:21:25.542Z,39.33
2023-02-22T00:23:54.641Z,38.33
2023-02-22T00:26:23.327Z,37.45
2023-02-22T00:28:54.446Z,39.17
2023-02-22T00:31:21.804Z,40.53
2023-02-22T00:33:49.406Z,43.42
2023-02-22T00:36:17.370Z,43.47
2023-02-22T00:38:43.925Z,39.33
2023-02-22T00:41:11.753Z,42.25
2023-02-22T00:43:38.341Z,42.17
2023-02-22T00:46:05.210Z,42.92
2023-02-22T00:48:31.820Z,40.70
2023-02-22T00:50:58.425Z,46.03
2023-02-22T00:53:26.435Z,43.35
2023-02-22T00:55:53.895Z,42.55
2023-02-22T00:58:22.007Z,41.88
2023-02-22T01:00:50.105Z,43.13
2023-02-22T01:03:19.348Z,45.72
2023-02-22T01:05:46.619Z,45.03
2023-02-22T01:08:15.902Z,46.13
2023-02-22T01:10:43.401Z,42.28
2023-02-22T01:13:12.846Z,46.13
2023-02-22T01:15:43.068Z,46.80
2023-02-22T01:18:10.195Z,45.97
2023-02-22T01:20:37.100Z,38.28
2023-02-22T01:23:06.990Z,46.33
2023-02-22T01:25:35.273Z,44.50
2023-02-22T01:28:03.639Z,43.97
2023-02-22T01:30:35.886Z,43.80
2023-02-22T01:33:05.118Z,44.85
2023-02-22T01:35:35.368Z,45.33
2023-02-22T01:38:02.060Z,48.05
2023-02-22T01:40:34.453Z,44.03
2023-02-22T01:43:30.378Z,45.10
2023-02-22T01:46:04.496Z,41.83
2023-02-22T01:48:40.938Z,46.38
2023-02-22T01:51:20.832Z,45.30
2023-02-22T01:54:01.418Z,52.63
2023-02-22T01:56:30.757Z,51.13
2023-02-22T01:59:00.969Z,44.97
2023-02-22T02:01:29.384Z,47.60
2023-02-22T02:03:59.761Z,49.33
2023-02-22T02:06:29.242Z,52.83
2023-02-22T02:09:02.731Z,51.65
2023-02-22T02:11:29.593Z,49.60
2023-02-22T02:14:00.056Z,48.88
2023-02-22T02:16:44.490Z,48.45
2023-02-22T02:19:24.224Z,49.13
2023-02-22T02:22:07.939Z,48.78
2023-02-22T02:25:05.034Z,45.20
2023-02-22T02:27:45.374Z,45.63
2023-02-22T02:30:19.474Z,51.65
2023-02-22T02:32:53.841Z,52.28
2023-02-22T02:35:50.159Z,53.75
2023-02-22T02:38:31.844Z,47.40
2023-02-22T02:41:08.901Z,49.47
2023-02-22T02:43:59.216Z,53.10
2023-02-22T02:46:36.685Z,52.38
2023-02-22T02:49:11.170Z,53.50
2023-02-22T02:51:41.952Z,53.10
2023-02-22T02:54:11.366Z,50.63
2023-02-22T02:56:37.972Z,50.47
2023-02-22T02:59:25.240Z,57.88
2023-02-22T03:02:11.562Z,48.55
2023-02-22T03:04:42.488Z,55.55
2023-02-22T03:07:25.448Z,56.60
2023-02-22T03:10:25.469Z,55.10
2023-02-22T03:12:58.476Z,60.03
2023-02-22T03:15:49.584Z,54.65
2023-02-22T03:18:30.851Z,59.37
2023-02-22T03:21:19.477Z,54.08
2023-02-22T03:23:56.132Z,62.00
2023-02-22T03:26:31.296Z,54.88
2023-02-22T03:29:05.041Z,59.38
2023-02-22T03:31:37.756Z,55.50
2023-02-22T03:34:14.160Z,62.47
2023-02-22T03:36:49.942Z,58.55
2023-02-22T03:39:19.086Z,59.40
2023-02-22T03:41:51.404Z,67.53
2023-02-22T03:44:27.362Z,61.75
2023-02-22T03:46:57.747Z,63.05
2023-02-22T03:49:51.195Z,63.55
2023-02-22T03:52:19.856Z,59.97
2023-02-22T03:54:46.484Z,67.45
2023-02-22T03:57:25.425Z,67.60
2023-02-22T04:00:07.169Z,68.65
2023-02-22T04:02:40.497Z,66.40
2023-02-22T04:05:10.583Z,68.97
2023-02-22T04:07:37.401Z,64.57
2023-02-22T04:10:04.591Z,66.20
2023-02-22T04:12:31.211Z,68.80
2023-02-22T04:15:03.654Z,63.58
2023-02-22T04:17:30.375Z,67.10
2023-02-22T04:19:58.221Z,65.78
2023-02-22T04:22:27.701Z,61.20
2023-02-22T04:24:54.451Z,67.65
2023-02-22T04:27:21.411Z,58.00
2023-02-22T04:29:48.469Z,65.65
2023-02-22T04:32:16.077Z,62.60
2023-02-22T04:34:42.759Z,61.33
2023-02-22T04:37:10.433Z,58.22
2023-02-22T04:39:37.066Z,88.70
2023-02-22T04:42:04.998Z,71.13
2023-02-22T04:44:32.743Z,61.50
2023-02-22T04:47:00.430Z,80.07
2023-02-22T04:49:28.128Z,54.47
2023-02-22T04:51:56.962Z,59.72
2023-02-22T04:54:32.517Z,59.40
2023-02-22T04:56:59.127Z,71.10
2023-02-22T04:59:26.514Z,53.63
2023-02-22T05:01:56.729Z,61.05
2023-02-22T05:04:23.343Z,50.88
2023-02-22T05:06:50.295Z,52.95
2023-02-22T05:09:16.824Z,52.47
2023-02-22T05:11:43.455Z,49.72
2023-02-22T05:14:10.042Z,56.88
2023-02-22T05:16:36.881Z,53.85
2023-02-22T05:19:03.867Z,58.55
2023-02-22T05:21:30.486Z,58.97
2023-02-22T05:23:57.513Z,59.00
2023-02-22T05:26:24.239Z,55.38
2023-02-22T05:28:50.902Z,61.80
2023-02-22T05:31:18.053Z,57.10
2023-02-22T05:33:44.899Z,62.20
2023-02-22T05:36:11.511Z,63.53
2023-02-22T05:38:43.417Z,60.30
2023-02-22T05:41:12.117Z,59.15
2023-02-22T05:43:40.064Z,57.25
2023-02-22T05:46:06.979Z,59.50
2023-02-22T05:48:33.803Z,55.72
2023-02-22T05:51:00.404Z,58.85
2023-02-22T05:53:27.719Z,70.10
2023-02-22T05:55:54.560Z,56.35
2023-02-22T05:58:21.782Z,55.60
2023-02-22T06:00:48.423Z,50.78
2023-02-22T06:03:15.276Z,51.00
2023-02-22T06:05:42.813Z,50.80
2023-02-22T06:08:10.161Z,48.72
2023-02-22T06:10:36.881Z,52.25
2023-02-22T06:13:05.316Z,55.72
2023-02-22T06:15:32.240Z,54.20
2023-02-22T06:18:00.161Z,56.15
2023-02-22T06:20:28.886Z,50.63
2023-02-22T06:22:57.643Z,52.90
2023-02-22T06:25:27.155Z,55.10
2023-02-22T06:27:53.938Z,59.00
2023-02-22T06:30:22.642Z,57.38
2023-02-22T06:32:49.250Z,60.80
2023-02-22T06:35:16.833Z,56.97
2023-02-22T06:37:43.646Z,59.88
2023-02-22T06:40:11.254Z,62.80
2023-02-22T06:42:38.687Z,57.72
2023-02-22T06:45:05.544Z,55.90
2023-02-22T06:47:32.174Z,65.32
2023-02-22T06:50:03.778Z,55.15
2023-02-22T06:52:30.396Z,58.85
2023-02-22T06:54:56.951Z,65.78
2023-02-22T06:57:23.686Z,64.55
2023-02-22T06:59:50.333Z,61.30
2023-02-22T07:02:16.938Z,65.03
2023-02-22T07:04:45.309Z,59.05
2023-02-22T07:07:11.887Z,63.97
2023-02-22T07:09:38.418Z,57.83
2023-02-22T07:12:05.069Z,63.60
2023-02-22T07:14:31.696Z,71.20
2023-02-22T07:16:58.226Z,60.42
2023-02-22T07:19:24.713Z,68.78
2023-02-22T07:21:55.306Z,71.10
2023-02-22T07:24:21.894Z,78.50
2023-02-22T07:26:48.471Z,66.25
2023-02-22T07:29:14.973Z,74.80
2023-02-22T07:31:41.563Z,68.45
2023-02-22T07:34:08.158Z,72.35
2023-02-22T07:36:34.810Z,72.47
2023-02-22T07:39:01.488Z,69.55
2023-02-22T07:41:28.069Z,70.20
2023-02-22T07:43:54.636Z,74.75
2023-02-22T07:46:21.181Z,62.58
2023-02-22T07:48:47.752Z,70.13
2023-02-22T07:51:17.465Z,73.07
2023-02-22T07:53:46.806Z,71.18
2023-02-22T07:56:13.424Z,73.63
2023-02-22T07:58:40.059Z,67.20
2023-02-22T08:01:06.640Z,75.18
2023-02-22T08:03:36.603Z,65.00
2023-02-22T08:06:05.685Z,64.18
2023-02-22T08:08:32.291Z,67.07
2023-02-22T08:10:58.927Z,65.47
2023-02-22T08:13:25.530Z,65.20
2023-02-22T08:15:53.824Z,65.43
2023-02-22T08:18:21.639Z,54.60
2023-02-22T08:20:50.381Z,58.63
2023-02-22T08:23:18.427Z,59.45
2023-02-22T08:25:45.225Z,59.63
2023-02-22T08:28:15.023Z,49.90
2023-02-22T08:30:45.008Z,58.35
2023-02-22T08:33:15.818Z,52.72
2023-02-22T08:35:42.882Z,58.53
2023-02-22T08:38:17.454Z,61.58
2023-02-22T08:40:44.022Z,50.40
2023-02-22T08:43:10.555Z,46.75
2023-02-22T08:45:37.228Z,41.33
2023-02-22T08:48:04.065Z,44.22
2023-02-22T08:50:35.594Z,47.95
2023-02-22T08:53:04.668Z,42.45
2023-02-22T08:55:34.086Z,48.15
2023-02-22T08:58:03.069Z,45.38
2023-02-22T09:00:33.572Z,47.35
2023-02-22T09:03:01.689Z,44.78
2023-02-22T09:05:31.121Z,42.08
2023-02-22T09:07:58.015Z,44.28
2023-02-22T09:10:27.557Z,41.00
2023-02-22T09:12:58.127Z,42.35
2023-02-22T09:15:25.456Z,42.95
2023-02-22T09:17:53.123Z,44.55
2023-02-22T09:20:21.929Z,40.90
2023-02-22T09:22:49.949Z,43.30
2023-02-22T09:25:18.109Z,43.90
2023-02-22T09:27:48.318Z,44.63
2023-02-22T09:30:19.944Z,44.72
2023-02-22T09:32:46.652Z,40.00
2023-02-22T09:35:13.344Z,40.33
2023-02-22T09:37:39.991Z,40.38
2023-02-22T09:40:10.040Z,38.63
2023-02-22T09:42:53.986Z,38.97
2023-02-22T09:45:27.774Z,38.15
2023-02-22T09:48:08.187Z,39.85
2023-02-22T09:50:46.413Z,37.38
2023-02-22T09:53:21.786Z,35.20
2023-02-22T09:55:52.330Z,41.13
2023-02-22T09:58:24.113Z,39.50
2023-02-22T10:00:59.541Z,39.00
2023-02-22T10:03:51.177Z,39.05
2023-02-22T10:06:23.067Z,38.75
2023-02-22T10:08:56.282Z,39.25
2023-02-22T10:11:48.622Z,34.40
2023-02-22T10:14:33.936Z,33.05
2023-02-22T10:17:30.374Z,33.05
2023-02-22T10:20:21.778Z,31.92
2023-02-22T10:23:00.752Z,32.60
2023-02-22T10:25:34.920Z,33.25
2023-02-22T10:28:19.670Z,34.15
2023-02-22T10:31:02.119Z,33.40
2023-02-22T10:34:03.248Z,32.28
2023-02-22T10:36:29.891Z,33.30
2023-02-22T10:39:10.763Z,30.92
2023-02-22T10:41:44.751Z,27.95
2023-02-22T10:44:11.381Z,30.15
2023-02-22T10:46:40.630Z,32.33
2023-02-22T10:49:07.811Z,30.38
2023-02-22T10:51:35.270Z,30.00
2023-02-22T10:54:28.485Z,28.48
2023-02-22T10:56:56.450Z,29.35
2023-02-22T10:59:34.589Z,31.92
2023-02-22T11:02:08.493Z,27.70
2023-02-22T11:04:49.438Z,30.65
2023-02-22T11:07:22.547Z,27.92
2023-02-22T11:09:52.709Z,28.23
2023-02-22T11:12:33.620Z,31.60
2023-02-22T11:15:32.482Z,27.00
2023-02-22T11:18:01.772Z,27.85
2023-02-22T11:20:38.403Z,28.33
2023-02-22T11:23:05.861Z,27.70
2023-02-22T11:25:36.660Z,28.60
2023-02-22T11:28:08.063Z,29.42
2023-02-22T11:30:36.088Z,28.15
2023-02-22T11:33:26.021Z,26.65
2023-02-22T11:35:58.188Z,25.80
2023-02-22T11:38:30.722Z,26.40
2023-02-22T11:41:15.525Z,25.40
2023-02-22T11:43:47.909Z,22.63
2023-02-22T11:46:14.535Z,26.02
2023-02-22T11:48:54.431Z,25.20
2023-02-22T11:51:35.804Z,26.13
2023-02-22T11:54:25.716Z,23.23
2023-02-22T11:56:55.722Z,24.27
2023-02-22T11:59:22.666Z,23.10
2023-02-22T12:01:55.778Z,22.52
2023-02-22T12:04:54.132Z,24.67
2023-02-22T12:07:23.869Z,24.58
2023-02-22T12:10:09.040Z,22.05
2023-02-22T12:13:00.005Z,22.90
2023-02-22T12:15:27.152Z,21.55
2023-02-22T12:18:09.165Z,20.20
2023-02-22T12:20:57.304Z,24.10
2023-02-22T12:23:44.690Z,21.02
2023-02-22T12:26:16.990Z,18.80
2023-02-22T12:31:25.220Z,20.70
2023-02-22T12:34:01.045Z,19.90
2023-02-22T12:36:36.403Z,22.75
2023-02-22T12:39:16.195Z,20.98
2023-02-22T12:41:48.224Z,20.95
2023-02-22T12:44:20.412Z,18.95
2023-02-22T12:46:55.121Z,17.67
2023-02-22T12:49:49.651Z,16.13
2023-02-22T12:52:41.550Z,17.58
2023-02-22T12:55:21.070Z,15.45
2023-02-22T12:57:57.171Z,15.48
2023-02-22T13:00:35.018Z,17.55
2023-02-22T13:03:26.437Z,18.05
2023-02-22T13:06:06.724Z,17.17
2023-02-22T13:08:51.566Z,18.95
2023-02-22T13:11:32.197Z,14.77
2023-02-22T13:14:30.059Z,18.45
2023-02-22T13:17:30.358Z,15.75
2023-02-22T13:20:08.693Z,16.35
2023-02-22T13:22:35.154Z,15.90
2023-02-22T13:25:19.574Z,18.17
2023-02-22T13:28:10.221Z,17.50
2023-02-22T13:30:41.580Z,17.27
2023-02-22T13:33:17.706Z,18.38
2023-02-22T13:35:55.419Z,18.98
2023-02-22T13:38:53.630Z,19.17
2023-02-22T13:41:39.384Z,17.20
2023-02-22T13:44:20.851Z,17.65
2023-02-22T13:46:53.366Z,16.92
2023-02-22T13:51:58.963Z,18.85
2023-02-22T13:54:48.418Z,24.30
2023-02-22T13:57:39.327Z,19.90
2023-02-22T14:00:14.866Z,22.13
2023-02-22T14:03:15.170Z,21.35
2023-02-22T14:05:42.192Z,19.85
2023-02-22T14:08:18.710Z,20.02
2023-02-22T14:11:07.087Z,28.38
2023-02-22T14:13:55.566Z,24.27
2023-02-22T14:16:26.025Z,23.35
2023-02-22T14:19:06.410Z,22.52
2023-02-22T14:21:35.156Z,34.22
2023-02-22T14:24:14.025Z,24.88
2023-02-22T14:26:53.474Z,24.48
2023-02-22T14:29:21.666Z,24.23
2023-02-22T14:31:49.982Z,30.92
2023-02-22T14:34:18.803Z,32.67
2023-02-22T14:37:09.005Z,59.95
2023-02-22T14:39:51.240Z,48.50
2023-02-22T14:42:27.092Z,26.73
2023-02-22T14:45:05.934Z,25.75
2023-02-22T14:47:38.470Z,22.60
2023-02-22T14:52:42.947Z,25.17
2023-02-22T14:55:22.582Z,24.70
2023-02-22T14:58:10.609Z,22.30
2023-02-22T15:00:46.061Z,22.02
2023-02-22T15:03:25.212Z,21.60
2023-02-22T15:05:51.809Z,22.77
2023-02-22T15:08:27.860Z,23.48
2023-02-22T15:10:54.868Z,22.20
2023-02-22T15:13:27.544Z,20.02
2023-02-22T15:16:07.868Z,23.63
2023-02-22T15:18:40.362Z,19.40
2023-02-22T15:21:13.496Z,20.77
2023-02-22T15:23:54.715Z,22.48
2023-02-22T15:26:52.021Z,18.65
2023-02-22T15:29:39.293Z,23.02
2023-02-22T15:32:29.152Z,22.70
2023-02-22T15:35:05.394Z,27.35
2023-02-22T15:37:32.505Z,21.60
2023-02-22T15:40:14.321Z,23.77
2023-02-22T15:43:02.242Z,18.98
2023-02-22T15:45:29.921Z,21.23
2023-02-22T15:47:58.520Z,21.60
2023-02-22T15:50:33.894Z,21.42
2023-02-22T15:53:07.732Z,24.77
2023-02-22T15:55:36.038Z,22.30
2023-02-22T15:58:22.248Z,24.35
2023-02-22T16:00:58.920Z,23.27
2023-02-22T16:03:28.681Z,21.80
2023-02-22T16:05:57.244Z,24.55
2023-02-22T16:08:29.298Z,22.40
2023-02-22T16:11:13.340Z,21.38
2023-02-22T16:13:42.067Z,21.08
2023-02-22T16:16:20.647Z,20.23
2023-02-22T16:18:47.661Z,25.75
2023-02-22T16:21:17.678Z,28.23
2023-02-22T16:23:55.989Z,29.15
2023-02-22T16:26:27.728Z,21.80
2023-02-22T16:29:05.002Z,23.90
2023-02-22T16:31:37.066Z,24.85
2023-02-22T16:34:06.524Z,24.50
2023-02-22T16:36:45.140Z,26.13
2023-02-22T16:39:35.885Z,24.70
2023-02-22T16:42:10.430Z,24.88
2023-02-22T16:44:37.739Z,20.75
2023-02-22T16:47:04.316Z,25.00
2023-02-22T16:49:30.877Z,25.13
2023-02-22T16:52:01.354Z,25.27
2023-02-22T16:54:36.456Z,25.95
2023-02-22T16:57:04.942Z,24.27
2023-02-22T16:59:36.350Z,23.67
2023-02-22T17:02:07.381Z,23.35
2023-02-22T17:04:36.529Z,23.02
2023-02-22T17:07:05.161Z,22.67
2023-02-22T17:09:32.754Z,25.75
2023-02-22T17:11:59.451Z,25.77
2023-02-22T17:14:31.268Z,26.55
2023-02-22T17:16:58.421Z,24.88
2023-02-22T17:19:25.241Z,28.17
2023-02-22T17:21:52.915Z,25.67
2023-02-22T17:24:23.447Z,29.02
2023-02-22T17:26:52.929Z,27.15
2023-02-22T17:29:24.279Z,27.92
2023-02-22T17:31:52.459Z,25.95
2023-02-22T17:34:19.396Z,23.58
2023-02-22T17:36:46.473Z,27.23
2023-02-22T17:39:13.485Z,25.92
2023-02-22T17:41:40.906Z,31.10
2023-02-22T17:44:07.942Z,28.83
2023-02-22T17:46:36.504Z,27.35
2023-02-22T17:49:03.353Z,29.45
2023-02-22T17:51:30.100Z,29.48
2023-02-22T17:53:56.922Z,30.20
2023-02-22T17:56:23.583Z,35.83
2023-02-22T17:58:53.951Z,32.63
2023-02-22T18:01:32.244Z,29.65
2023-02-22T18:04:01.217Z,36.78
2023-02-22T18:06:30.072Z,26.60
2023-02-22T18:08:59.450Z,30.63
2023-02-22T18:11:28.402Z,23.67
2023-02-22T18:13:57.158Z,27.08
2023-02-22T18:16:27.738Z,27.08
2023-02-22T18:18:56.847Z,33.28
2023-02-22T18:21:23.927Z,30.48
2023-02-22T18:23:50.508Z,38.28
2023-02-22T18:26:19.181Z,61.17
2023-02-22T18:28:48.469Z,85.68
2023-02-22T18:31:17.017Z,68.63
2023-02-22T18:33:44.902Z,70.28
2023-02-22T18:36:13.139Z,82.10
2023-02-22T18:38:44.097Z,76.15
2023-02-22T18:41:13.214Z,57.33
2023-02-22T18:43:40.259Z,62.00
2023-02-22T18:46:16.075Z,69.93
2023-02-22T18:48:43.710Z,74.85
2023-02-22T18:51:14.171Z,85.63
2023-02-22T18:53:46.963Z,58.15
2023-02-22T18:56:17.223Z,46.88
2023-02-22T18:58:44.164Z,43.85
2023-02-22T19:01:17.842Z,46.50
2023-02-22T19:03:47.108Z,42.65
2023-02-22T19:06:14.937Z,35.83
2023-02-22T19:08:42.679Z,32.10
2023-02-22T19:11:17.768Z,35.75
2023-02-22T19:13:49.371Z,32.78
2023-02-22T19:16:21.859Z,37.28
2023-02-22T19:18:49.708Z,34.60
2023-02-22T19:21:16.604Z,36.83
2023-02-22T19:23:47.566Z,37.40
2023-02-22T19:26:24.011Z,32.17
2023-02-22T19:28:53.481Z,31.15
2023-02-22T19:31:21.819Z,31.67
2023-02-22T19:33:52.679Z,32.22
2023-02-22T19:36:22.936Z,36.55
2023-02-22T19:38:49.763Z,34.85
2023-02-22T19:41:20.352Z,36.25
2023-02-22T19:43:48.496Z,35.45
2023-02-22T19:46:17.783Z,69.75
2023-02-22T19:48:50.999Z,42.90
2023-02-22T19:51:19.542Z,48.55
2023-02-22T19:53:47.116Z,45.35
2023-02-22T19:56:42.722Z,42.15
2023-02-22T19:59:13.639Z,46.95
2023-02-22T20:01:44.026Z,53.20
2023-02-22T20:04:17.689Z,53.63
2023-02-22T20:07:20.436Z,55.45
2023-02-22T20:09:53.701Z,59.67
2023-02-22T20:12:21.386Z,66.47
2023-02-22T20:14:47.990Z,72.22
2023-02-22T20:17:14.489Z,71.32
2023-02-22T20:19:42.440Z,71.50
2023-02-22T20:22:12.326Z,73.93
2023-02-22T20:24:39.010Z,62.42
2023-02-22T20:27:05.634Z,70.43
2023-02-22T20:29:32.387Z,66.60
2023-02-22T20:32:00.864Z,70.15
2023-02-22T20:34:32.438Z,68.70
2023-02-22T20:37:00.295Z,77.13
2023-02-22T20:39:27.180Z,75.82
2023-02-22T20:41:54.538Z,77.90
2023-02-22T20:44:21.810Z,83.18
2023-02-22T20:46:49.422Z,81.45
2023-02-22T20:49:18.962Z,81.40
2023-02-22T20:51:46.555Z,84.30
2023-02-22T20:54:13.529Z,87.13
2023-02-22T20:56:41.827Z,82.13
2023-02-22T20:59:11.891Z,81.18
2023-02-22T21:01:38.517Z,84.20
2023-02-22T21:04:07.289Z,76.95
2023-02-22T21:06:36.245Z,75.35
2023-02-22T21:09:07.193Z,72.22
2023-02-22T21:11:33.863Z,73.95
2023-02-22T21:14:01.931Z,74.38
2023-02-22T21:16:35.355Z,76.80
2023-02-22T21:19:04.745Z,76.80
2023-02-22T21:21:31.810Z,78.65
2023-02-22T21:24:02.825Z,72.97
2023-02-22T21:26:33.800Z,84.53
2023-02-22T21:29:06.042Z,75.90
2023-02-22T21:31:34.260Z,69.63
2023-02-22T21:34:01.137Z,74.85
2023-02-22T21:36:28.708Z,77.45
2023-02-22T21:39:00.622Z,81.70
2023-02-22T21:41:29.450Z,68.32
2023-02-22T21:43:57.699Z,65.50
2023-02-22T21:46:25.489Z,72.20
2023-02-22T21:48:52.103Z,68.93
2023-02-22T21:51:32.507Z,71.38
2023-02-22T21:54:08.123Z,70.65
2023-02-22T21:56:39.719Z,73.32
2023-02-22T21:59:11.598Z,65.55
2023-02-22T22:01:47.773Z,69.05
2023-02-22T22:04:18.899Z,66.55
2023-02-22T22:06:47.755Z,62.60
2023-02-22T22:09:21.896Z,64.90
2023-02-22T22:11:50.982Z,66.78
2023-02-22T22:14:19.376Z,68.50
2023-02-22T22:16:48.064Z,70.13
2023-02-22T22:19:15.016Z,73.97
2023-02-22T22:21:41.578Z,61.08
2023-02-22T22:24:10.359Z,64.00
2023-02-22T22:26:37.974Z,65.82
2023-02-22T22:29:05.111Z,69.10
2023-02-22T22:31:32.326Z,67.75
2023-02-22T22:33:59.133Z,73.82
2023-02-22T22:36:27.320Z,76.78
2023-02-22T22:38:57.526Z,73.07
2023-02-22T22:41:27.854Z,77.70
2023-02-22T22:43:54.403Z,86.03
2023-02-22T22:46:22.464Z,69.53
2023-02-22T22:48:49.055Z,68.88
2023-02-22T22:51:21.087Z,70.93
2023-02-22T22:53:49.771Z,70.45
2023-02-22T22:56:26.197Z,66.10
2023-02-22T22:58:58.092Z,72.00
2023-02-22T23:01:27.865Z,72.78
2023-02-22T23:04:01.793Z,74.57
2023-02-22T23:06:34.269Z,72.93
2023-02-22T23:09:11.479Z,78.05
2023-02-22T23:11:44.431Z,73.95
2023-02-22T23:14:19.353Z,78.32
2023-02-22T23:16:50.522Z,78.85
2023-02-22T23:19:19.122Z,88.75
2023-02-22T23:21:50.142Z,80.05
2023-02-22T23:24:21.032Z,88.63
2023-02-22T23:26:48.869Z,87.40
2023-02-22T23:29:20.656Z,95.35
2023-02-22T23:31:48.829Z,102.35
2023-02-22T23:34:21.075Z,98.82
2023-02-22T23:36:48.418Z,100.63
2023-02-22T23:39:18.132Z,89.72
2023-02-22T23:41:44.789Z,95.70
2023-02-22T23:44:17.080Z,99.38
2023-02-22T23:46:47.553Z,90.85
2023-02-22T23:49:19.911Z,83.45
2023-02-22T23:51:47.677Z,91.50
2023-02-22T23:54:19.294Z,92.40
2023-02-22T23:57:05.267Z,84.53
2023-02-22T23:59:33.269Z,91.43
